Time;durP1;ratioP1;P1;durP2;ratioP2;P2;SDS_P1;SDS_P2;PMS_P1;PMS_P2;Temp;Humidity;BMP_temperature;BMP_pressure;BME280_temperature;BME280_humidity;BME280_pressure;Samples;Min_cycle;Max_cycle;Signal;HPM_P1;HPM_P2
2022/09/18 03:01:33;;;;;;;0.70;0.60;;;11.00;86.40;;;;;;5603098;23;21022;-73
2022/09/18 03:04:03;;;;;;;0.70;0.60;;;10.80;87.40;;;;;;4936966;29;21002;-73
2022/09/18 03:06:30;;;;;;;0.90;0.60;;;10.70;87.90;;;;;;4936824;29;20479;-73
2022/09/18 03:08:56;;;;;;;0.70;0.50;;;10.50;89.10;;;;;;4936961;29;20455;-73
2022/09/18 03:11:23;;;;;;;0.70;0.60;;;10.50;89.30;;;;;;4936813;29;20880;-73
2022/09/18 03:13:50;;;;;;;0.70;0.53;;;10.40;89.40;;;;;;4938421;29;20463;-72
2022/09/18 03:16:19;;;;;;;0.70;0.60;;;10.30;89.80;;;;;;4936813;29;20813;-73
2022/09/18 03:18:47;;;;;;;0.70;0.60;;;10.30;90.30;;;;;;4936581;29;20444;-73
2022/09/18 03:21:14;;;;;;;0.80;0.60;;;10.30;90.00;;;;;;4936412;29;20979;-73
2022/09/18 03:23:41;;;;;;;0.80;0.70;;;10.30;90.40;;;;;;4936864;29;20511;-73
2022/09/18 03:26:07;;;;;;;0.90;0.60;;;10.30;90.40;;;;;;4936671;29;20502;-73
2022/09/18 03:28:34;;;;;;;0.87;0.63;;;10.30;90.50;;;;;;4936268;29;20845;-73
2022/09/18 03:31:01;;;;;;;0.70;0.70;;;10.30;90.50;;;;;;4936181;29;21066;-73
2022/09/18 03:33:27;;;;;;;0.80;0.60;;;10.30;90.50;;;;;;4936445;29;20548;-73
2022/09/18 03:35:55;;;;;;;0.73;0.70;;;10.40;90.50;;;;;;4936469;29;20460;-73
2022/09/18 03:38:22;;;;;;;0.97;0.70;;;10.40;89.80;;;;;;4936517;29;20511;-73
2022/09/18 03:40:49;;;;;;;0.80;0.70;;;10.30;90.20;;;;;;4936020;29;20508;-73
2022/09/18 03:43:15;;;;;;;0.70;0.60;;;10.30;90.70;;;;;;4936596;29;20543;-73
2022/09/18 03:45:43;;;;;;;1.03;0.70;;;10.20;90.60;;;;;;4936310;29;20527;-73
2022/09/18 03:48:09;;;;;;;0.70;0.60;;;10.10;91.00;;;;;;4936341;29;20484;-73
2022/09/18 03:50:36;;;;;;;0.97;0.67;;;10.10;91.30;;;;;;4936296;29;20484;-73
2022/09/18 03:53:04;;;;;;;0.70;0.60;;;10.10;91.40;;;;;;4936133;29;20943;-73
2022/09/18 03:55:31;;;;;;;0.80;0.60;;;10.10;91.40;;;;;;4936309;29;20448;-73
2022/09/18 03:57:57;;;;;;;0.70;0.70;;;10.20;91.30;;;;;;4936554;29;20456;-73
2022/09/18 04:00:24;;;;;;;0.93;0.70;;;10.30;91.30;;;;;;4936140;29;20510;-71
2022/09/18 04:02:51;;;;;;;0.60;0.60;;;10.30;91.00;;;;;;4936197;29;20519;-73
2022/09/18 04:05:18;;;;;;;0.80;0.60;;;10.30;90.90;;;;;;4936227;29;20491;-73
2022/09/18 04:07:44;;;;;;;0.70;0.60;;;10.40;91.10;;;;;;4936137;29;20901;-73
2022/09/18 04:10:13;;;;;;;0.60;0.50;;;10.30;90.50;;;;;;4936456;29;20812;-73
2022/09/18 04:12:39;;;;;;;0.70;0.60;;;10.50;90.70;;;;;;4936076;29;20471;-73
2022/09/18 04:15:07;;;;;;;0.90;0.60;;;10.40;90.50;;;;;;4936094;29;20511;-73
2022/09/18 04:17:34;;;;;;;0.63;0.60;;;10.50;90.40;;;;;;4936071;29;20447;-73
2022/09/18 04:20:01;;;;;;;0.77;0.60;;;10.50;90.40;;;;;;4936117;29;20447;-73
2022/09/18 04:22:27;;;;;;;0.70;0.60;;;10.60;90.50;;;;;;4935673;29;20475;-73
2022/09/18 04:24:54;;;;;;;0.93;0.80;;;10.60;89.60;;;;;;4936098;29;20448;-73
2022/09/18 04:27:22;;;;;;;0.70;0.60;;;10.60;90.30;;;;;;4935985;29;20480;-73
2022/09/18 04:29:49;;;;;;;0.70;0.60;;;10.40;90.30;;;;;;4935989;29;20452;-73
2022/09/18 04:32:21;;;;;;;0.70;0.60;;;10.30;90.90;;;;;;4935597;29;20891;-73
2022/09/18 04:34:48;;;;;;;1.00;0.80;;;10.30;91.30;;;;;;4936113;29;20869;-73
2022/09/18 04:37:15;;;;;;;0.83;0.60;;;10.30;91.20;;;;;;4935796;29;20452;-73
2022/09/18 04:39:42;;;;;;;0.83;0.60;;;10.30;91.60;;;;;;4935992;29;20553;-73
2022/09/18 04:42:09;;;;;;;1.00;0.70;;;10.20;91.40;;;;;;4936096;29;20531;-73
2022/09/18 04:44:37;;;;;;;0.60;0.50;;;10.20;91.70;;;;;;4935610;29;20872;-73
2022/09/18 04:47:05;;;;;;;0.70;0.67;;;10.20;92.00;;;;;;4935920;29;20571;-73
2022/09/18 04:49:31;;;;;;;0.70;0.60;;;10.40;92.00;;;;;;4935963;29;20452;-73
2022/09/18 04:51:58;;;;;;;0.70;0.60;;;10.40;90.90;;;;;;4935935;29;20519;-73
2022/09/18 04:54:33;;;;;;;0.70;0.60;;;10.50;91.50;;;;;;4935822;29;20448;-73
2022/09/18 04:57:00;;;;;;;0.70;0.70;;;10.60;90.90;;;;;;4936557;29;20491;-73
2022/09/18 04:59:26;;;;;;;1.10;0.73;;;10.60;90.00;;;;;;4938778;29;20843;-72
2022/09/18 05:01:54;;;;;;;0.70;0.60;;;10.60;90.30;;;;;;4938682;29;20535;-72
2022/09/18 05:04:21;;;;;;;0.70;0.60;;;10.50;90.70;;;;;;4939142;29;20460;-73
2022/09/18 05:06:48;;;;;;;0.70;0.60;;;10.60;90.10;;;;;;4939029;29;20480;-72
2022/09/18 05:09:14;;;;;;;1.00;0.60;;;10.40;90.50;;;;;;4938986;29;20511;-72
2022/09/18 05:11:41;;;;;;;0.70;0.60;;;10.40;90.60;;;;;;4938834;29;20563;-72
2022/09/18 05:14:08;;;;;;;0.70;0.60;;;10.40;90.70;;;;;;4938926;29;20507;-73
2022/09/18 05:16:34;;;;;;;0.60;0.50;;;10.50;91.10;;;;;;4938655;29;20444;-73
2022/09/18 05:19:02;;;;;;;0.60;0.50;;;10.50;90.40;;;;;;4938851;29;20447;-73
2022/09/18 05:21:29;;;;;;;0.70;0.60;;;10.60;90.20;;;;;;4938732;29;20480;-72
2022/09/18 05:23:56;;;;;;;1.00;0.60;;;10.70;90.00;;;;;;4938851;29;20491;-72
2022/09/18 05:26:23;;;;;;;0.90;0.60;;;10.80;89.80;;;;;;4938731;29;20514;-72
2022/09/18 05:28:49;;;;;;;0.70;0.60;;;10.80;89.50;;;;;;4938625;29;20459;-72
2022/09/18 05:31:16;;;;;;;0.70;0.60;;;10.90;89.70;;;;;;4938390;29;20567;-73
2022/09/18 05:33:43;;;;;;;0.80;0.70;;;11.00;89.10;;;;;;4938606;29;20452;-73
2022/09/18 05:36:11;;;;;;;1.17;0.60;;;11.00;88.40;;;;;;4938595;29;20456;-73
2022/09/18 05:38:38;;;;;;;1.10;0.60;;;10.80;88.90;;;;;;4938612;29;20523;-72
2022/09/18 05:41:05;;;;;;;0.70;0.60;;;10.70;89.30;;;;;;4937933;29;20464;-72
2022/09/18 05:43:32;;;;;;;0.70;0.60;;;10.60;89.90;;;;;;4937916;29;20460;-72
2022/09/18 05:46:00;;;;;;;0.70;0.60;;;10.50;89.80;;;;;;4938222;29;20452;-73
2022/09/18 05:48:27;;;;;;;0.70;0.60;;;10.30;90.60;;;;;;4938086;29;20492;-73
2022/09/18 05:50:54;;;;;;;0.70;0.60;;;10.30;91.30;;;;;;4937745;29;20826;-73
2022/09/18 05:53:22;;;;;;;0.70;0.60;;;10.30;91.50;;;;;;4938040;29;20448;-72
2022/09/18 05:55:49;;;;;;;0.80;0.60;;;10.40;91.30;;;;;;4938053;29;20451;-73
2022/09/18 05:58:18;;;;;;;0.70;0.60;;;10.40;91.40;;;;;;4938053;29;20448;-73
2022/09/18 06:00:45;;;;;;;0.70;0.60;;;10.40;90.70;;;;;;4937930;29;20527;-72
2022/09/18 06:03:13;;;;;;;0.70;0.60;;;10.40;91.00;;;;;;4937993;29;20436;-73
2022/09/18 06:05:41;;;;;;;0.70;0.60;;;10.20;91.40;;;;;;4937827;29;20457;-73
2022/09/18 06:08:10;;;;;;;0.80;0.70;;;10.20;91.90;;;;;;4937217;29;20488;-72
2022/09/18 06:10:40;;;;;;;0.80;0.60;;;10.20;92.20;;;;;;4937217;29;20804;-72
2022/09/18 06:13:08;;;;;;;0.70;0.70;;;10.20;92.20;;;;;;4937816;29;20448;-73
2022/09/18 06:15:36;;;;;;;0.70;0.60;;;10.40;92.20;;;;;;4937810;29;20455;-73
2022/09/18 06:18:03;;;;;;;0.60;0.50;;;10.50;92.20;;;;;;4937826;29;20455;-73
2022/09/18 06:20:30;;;;;;;0.70;0.60;;;10.70;91.60;;;;;;4938183;29;20511;-72
2022/09/18 06:22:59;;;;;;;0.70;0.50;;;10.60;90.90;;;;;;4937723;29;20448;-73
2022/09/18 06:25:26;;;;;;;1.83;0.70;;;10.70;91.20;;;;;;4937600;29;20538;-73
2022/09/18 06:27:57;;;;;;;0.70;0.60;;;10.80;90.80;;;;;;4937512;29;20488;-73
2022/09/18 06:30:24;;;;;;;0.80;0.70;;;10.70;90.60;;;;;;4937495;29;20475;-73
2022/09/18 06:32:51;;;;;;;0.80;0.70;;;10.70;91.00;;;;;;4937506;29;20535;-73
2022/09/18 06:35:18;;;;;;;0.77;0.67;;;10.80;91.20;;;;;;4937370;29;20555;-73
2022/09/18 06:37:44;;;;;;;0.70;0.50;;;10.70;90.60;;;;;;4937378;29;20480;-72
2022/09/18 06:40:11;;;;;;;0.70;0.70;;;10.80;91.20;;;;;;4937362;29;20460;-73
2022/09/18 06:42:38;;;;;;;0.80;0.60;;;10.70;90.60;;;;;;4937380;29;20826;-73
2022/09/18 06:45:07;;;;;;;0.60;0.60;;;10.90;90.60;;;;;;4937476;29;21096;-73
2022/09/18 06:47:34;;;;;;;0.67;0.60;;;11.00;90.00;;;;;;4937044;29;21009;-73
2022/09/18 06:50:00;;;;;;;0.70;0.67;;;11.00;89.80;;;;;;4937272;29;20507;-73
2022/09/18 06:52:27;;;;;;;0.60;0.60;;;11.00;89.70;;;;;;4937152;29;20476;-73
2022/09/18 06:54:54;;;;;;;0.70;0.60;;;11.00;90.40;;;;;;4936872;29;21011;-73
2022/09/18 06:57:20;;;;;;;0.70;0.60;;;11.00;90.00;;;;;;4937134;29;20455;-73
2022/09/18 06:59:47;;;;;;;0.80;0.70;;;11.00;90.30;;;;;;4937051;29;20455;-73
2022/09/18 07:02:15;;;;;;;0.90;0.67;;;11.10;90.90;;;;;;4936665;29;20484;-73
2022/09/18 07:04:42;;;;;;;0.70;0.60;;;11.10;90.20;;;;;;4936987;29;20460;-73
2022/09/18 07:07:08;;;;;;;0.70;0.67;;;11.20;90.60;;;;;;4936758;29;20820;-73
2022/09/18 07:09:35;;;;;;;0.60;0.50;;;11.30;90.30;;;;;;4937013;29;20448;-73
2022/09/18 07:12:02;;;;;;;0.70;0.60;;;11.50;90.60;;;;;;4936778;29;20472;-73
2022/09/18 07:14:29;;;;;;;0.70;0.60;;;11.70;89.50;;;;;;4936579;29;20951;-73
2022/09/18 07:16:55;;;;;;;0.70;0.70;;;11.90;89.20;;;;;;4936884;29;20448;-73
2022/09/18 07:19:23;;;;;;;0.70;0.63;;;12.10;88.40;;;;;;4936803;29;20452;-73
2022/09/18 07:21:52;;;;;;;0.70;0.60;;;12.10;87.40;;;;;;4936427;29;20539;-73
2022/09/18 07:24:18;;;;;;;0.80;0.60;;;12.20;87.80;;;;;;4936681;29;20879;-73
2022/09/18 07:26:45;;;;;;;0.83;0.63;;;12.20;87.60;;;;;;4936773;29;20523;-73
2022/09/18 07:29:12;;;;;;;0.90;0.67;;;12.30;87.20;;;;;;4936804;29;20487;-73
2022/09/18 07:31:38;;;;;;;0.73;0.60;;;12.20;87.60;;;;;;4936599;29;20472;-73
2022/09/18 07:34:06;;;;;;;0.73;0.67;;;12.20;87.40;;;;;;4936661;29;20507;-73
2022/09/18 07:36:34;;;;;;;0.70;0.60;;;12.10;87.50;;;;;;4936679;29;20459;-73
2022/09/18 07:39:01;;;;;;;0.70;0.70;;;12.20;87.70;;;;;;4936575;29;20444;-73
2022/09/18 07:41:28;;;;;;;0.80;0.60;;;12.30;87.50;;;;;;4936573;29;20472;-73
2022/09/18 07:43:55;;;;;;;0.60;0.50;;;12.30;86.90;;;;;;4936637;29;20459;-73
2022/09/18 07:46:21;;;;;;;0.80;0.60;;;12.10;86.50;;;;;;4936660;29;20875;-73
2022/09/18 07:48:48;;;;;;;0.80;0.67;;;11.90;86.70;;;;;;4936398;29;20484;-73
2022/09/18 07:51:15;;;;;;;0.60;0.50;;;12.00;87.30;;;;;;4936473;29;20468;-73
2022/09/18 07:53:43;;;;;;;0.70;0.60;;;12.10;87.60;;;;;;4936451;29;20460;-73
2022/09/18 07:56:11;;;;;;;0.70;0.70;;;12.10;86.90;;;;;;4936586;29;20460;-73
2022/09/18 07:58:38;;;;;;;0.80;0.70;;;12.20;87.10;;;;;;4936469;29;20452;-72
2022/09/18 08:01:06;;;;;;;0.70;0.60;;;12.20;86.20;;;;;;4936211;29;20538;-73
2022/09/18 08:03:32;;;;;;;0.63;0.60;;;12.10;85.60;;;;;;4937083;29;20547;-73
2022/09/18 08:05:59;;;;;;;0.80;0.80;;;11.80;86.80;;;;;;4936220;29;20454;-73
2022/09/18 08:08:26;;;;;;;0.70;0.60;;;11.80;86.90;;;;;;4936128;29;20484;-72
2022/09/18 08:10:56;;;;;;;0.70;0.60;;;11.80;87.20;;;;;;4936094;29;20468;-72
2022/09/18 08:13:22;;;;;;;0.70;0.70;;;11.80;87.10;;;;;;4936157;29;20536;-73
2022/09/18 08:15:49;;;;;;;0.60;0.60;;;11.70;87.40;;;;;;4935810;29;20989;-73
2022/09/18 08:18:16;;;;;;;0.63;0.60;;;11.80;87.70;;;;;;4936245;29;20448;-73
2022/09/18 08:20:43;;;;;;;0.70;0.60;;;11.90;87.90;;;;;;4936121;29;20460;-72
2022/09/18 08:23:10;;;;;;;0.80;0.70;;;12.00;87.30;;;;;;4936342;29;20452;-73
2022/09/18 08:25:37;;;;;;;0.60;0.50;;;12.00;87.10;;;;;;4935905;29;20464;-73
2022/09/18 08:28:06;;;;;;;0.80;0.60;;;12.00;87.20;;;;;;4935919;29;20534;-74
2022/09/18 08:30:34;;;;;;;0.80;0.80;;;12.10;86.40;;;;;;4935800;29;20452;-72
2022/09/18 08:33:02;;;;;;;0.70;0.60;;;11.90;86.20;;;;;;4937657;29;20952;-72
2022/09/18 08:35:30;;;;;;;0.77;0.77;;;11.90;86.60;;;;;;4939448;29;20518;-72
2022/09/18 08:37:58;;;;;;;0.60;0.60;;;12.00;87.20;;;;;;4939436;29;20452;-72
2022/09/18 08:40:39;;;;;;;0.70;0.70;;;12.00;86.10;;;;;;4939052;29;20874;-72
2022/09/18 08:43:15;;;;;;;0.70;0.70;;;11.90;86.20;;;;;;4939345;29;20440;-72
2022/09/18 08:45:54;;;;;;;0.60;0.50;;;11.60;87.00;;;;;;4939406;29;20440;-72
2022/09/18 08:48:26;;;;;;;0.70;0.70;;;11.60;87.20;;;;;;4938961;29;20970;-72
2022/09/18 08:50:58;;;;;;;0.70;0.60;;;11.60;87.90;;;;;;4939138;29;20500;-72
2022/09/18 08:53:32;;;;;;;0.70;0.60;;;11.80;88.50;;;;;;4939224;29;20444;-72
2022/09/18 08:56:01;;;;;;;0.63;0.60;;;11.80;87.70;;;;;;4939177;29;20440;-72
2022/09/18 08:58:34;;;;;;;0.70;0.60;;;12.00;87.80;;;;;;4939073;29;20534;-72
2022/09/18 09:01:07;;;;;;;0.60;0.60;;;12.00;87.30;;;;;;4938879;29;20551;-72
2022/09/18 09:03:44;;;;;;;0.70;0.70;;;12.10;87.10;;;;;;4939029;29;20527;-71
2022/09/18 09:06:23;;;;;;;0.70;0.60;;;12.20;87.00;;;;;;4938939;29;20439;-72
2022/09/18 09:09:16;;;;;;;0.67;0.60;;;12.10;87.70;;;;;;4938848;29;20886;-73
2022/09/18 09:11:51;;;;;;;1.23;0.60;;;12.20;87.90;;;;;;4938650;29;20527;-72
2022/09/18 09:14:35;;;;;;;0.60;0.60;;;12.20;86.40;;;;;;4940336;29;20440;-71
2022/09/18 09:17:05;;;;;;;0.70;0.67;;;12.40;87.10;;;;;;4938773;29;20500;-72
2022/09/18 09:19:39;;;;;;;0.70;0.60;;;12.40;86.90;;;;;;4938703;29;20480;-72
2022/09/18 09:22:16;;;;;;;0.60;0.50;;;12.60;86.80;;;;;;4938655;29;20535;-72
2022/09/18 09:24:53;;;;;;;0.60;0.60;;;12.60;86.10;;;;;;4938664;29;20495;-72
2022/09/18 09:27:24;;;;;;;0.70;0.60;;;12.50;86.30;;;;;;4938649;29;20440;-72
2022/09/18 09:30:00;;;;;;;1.20;0.73;;;12.70;86.50;;;;;;4938476;29;20472;-72
2022/09/18 09:32:31;;;;;;;0.70;0.60;;;12.60;85.30;;;;;;4938455;29;20482;-72
2022/09/18 09:35:08;;;;;;;0.70;0.60;;;12.60;85.20;;;;;;4938499;29;20441;-73
2022/09/18 09:37:39;;;;;;;0.70;0.60;;;12.50;85.30;;;;;;4938407;29;20440;-72
2022/09/18 09:40:14;;;;;;;0.67;0.60;;;12.40;85.40;;;;;;4938397;29;20437;-72
2022/09/18 09:42:46;;;;;;;1.00;0.80;;;12.20;86.10;;;;;;4938073;29;20463;-72
2022/09/18 09:45:19;;;;;;;0.67;0.60;;;12.20;86.10;;;;;;4938318;29;20468;-72
2022/09/18 09:47:52;;;;;;;0.60;0.60;;;12.20;85.10;;;;;;4938190;29;20507;-73
2022/09/18 09:50:36;;;;;;;0.70;0.60;;;12.30;86.50;;;;;;4938597;29;20432;-72
2022/09/18 09:53:06;;;;;;;0.70;0.70;;;12.20;86.70;;;;;;4938126;29;20539;-71
2022/09/18 09:55:41;;;;;;;0.67;0.60;;;12.20;88.00;;;;;;4938078;29;20459;-72
2022/09/18 09:58:17;;;;;;;0.70;0.60;;;12.40;88.30;;;;;;4938154;29;20436;-72
2022/09/18 10:00:51;;;;;;;0.80;0.60;;;12.40;86.80;;;;;;4937828;29;20471;-72
2022/09/18 10:03:31;;;;;;;0.70;0.60;;;12.70;88.50;;;;;;4938039;29;20433;-72
2022/09/18 10:06:08;;;;;;;0.60;0.60;;;12.80;86.30;;;;;;4937949;29;20436;-72
2022/09/18 10:08:40;;;;;;;0.70;0.67;;;13.00;86.00;;;;;;4937810;29;20494;-72
2022/09/18 10:11:10;;;;;;;0.70;0.70;;;13.20;85.30;;;;;;4937777;29;20468;-72
2022/09/18 10:13:44;;;;;;;0.70;0.60;;;13.20;84.70;;;;;;4937741;29;20456;-70
2022/09/18 10:16:18;;;;;;;0.80;0.70;;;13.30;84.10;;;;;;4937789;29;20428;-71
2022/09/18 10:18:46;;;;;;;0.97;0.70;;;13.60;83.90;;;;;;4938500;29;20499;-72
2022/09/18 10:21:16;;;;;;;0.70;0.60;;;13.70;83.10;;;;;;4937192;29;21062;-71
2022/09/18 10:23:47;;;;;;;0.73;0.60;;;14.00;83.40;;;;;;4937525;29;20456;-72
2022/09/18 10:26:19;;;;;;;0.70;0.60;;;14.20;81.10;;;;;;4937943;29;20456;-72
2022/09/18 10:28:46;;;;;;;0.80;0.80;;;14.20;79.10;;;;;;4937524;29;20472;-72
2022/09/18 10:31:14;;;;;;;0.80;0.60;;;14.10;77.90;;;;;;4937370;29;20500;-72
2022/09/18 10:33:43;;;;;;;0.70;0.60;;;14.00;78.90;;;;;;4937356;29;20543;-72
2022/09/18 10:36:24;;;;;;;0.70;0.70;;;14.20;80.80;;;;;;4937269;29;20460;-72
2022/09/18 10:38:52;;;;;;;0.80;0.60;;;14.40;77.80;;;;;;4937287;29;20432;-71
2022/09/18 10:41:28;;;;;;;0.97;0.60;;;14.40;77.60;;;;;;4936849;29;21050;-72
2022/09/18 10:44:05;;;;;;;0.70;0.60;;;14.50;77.70;;;;;;4937244;29;20443;-72
2022/09/18 10:46:36;;;;;;;0.80;0.60;;;14.40;76.70;;;;;;4937190;29;20523;-71
2022/09/18 10:49:17;;;;;;;0.70;0.60;;;14.40;76.80;;;;;;4937101;29;20523;-72
2022/09/18 10:51:44;;;;;;;1.40;1.27;;;14.50;75.20;;;;;;4937011;29;20570;-72
2022/09/18 10:54:17;;;;;;;0.70;0.70;;;14.70;75.80;;;;;;4936854;29;20502;-72
2022/09/18 10:56:44;;;;;;;0.60;0.50;;;14.80;74.50;;;;;;4936366;29;20941;-72
2022/09/18 10:59:34;;;;;;;0.70;0.60;;;14.80;74.40;;;;;;4937177;29;20504;-72
2022/09/18 11:02:05;;;;;;;0.70;0.63;;;14.80;73.30;;;;;;4937210;29;20480;-72
2022/09/18 11:04:33;;;;;;;0.80;0.80;;;14.80;74.00;;;;;;4937818;29;20440;-72
2022/09/18 11:07:03;;;;;;;0.70;0.60;;;14.80;72.50;;;;;;4937563;29;20455;-72
2022/09/18 11:09:32;;;;;;;0.67;0.60;;;15.00;71.40;;;;;;4937191;29;21070;-72
2022/09/18 11:11:59;;;;;;;0.70;0.60;;;15.30;73.90;;;;;;4937466;29;20476;-72
2022/09/18 11:14:28;;;;;;;0.70;0.60;;;15.60;73.60;;;;;;4938103;29;20456;-72
2022/09/18 11:16:57;;;;;;;0.60;0.53;;;15.70;69.50;;;;;;4937895;29;20457;-72
2022/09/18 11:19:29;;;;;;;0.60;0.60;;;15.90;70.20;;;;;;4938410;29;20451;-72
2022/09/18 11:22:00;;;;;;;0.90;0.70;;;15.80;69.90;;;;;;4937381;29;20472;-73
2022/09/18 11:24:30;;;;;;;0.60;0.60;;;15.70;69.80;;;;;;4937823;29;20448;-72
2022/09/18 11:26:58;;;;;;;0.70;0.60;;;15.40;70.80;;;;;;4937099;29;20456;-72
2022/09/18 11:29:29;;;;;;;1.03;0.60;;;15.10;69.80;;;;;;4937048;29;20490;-72
2022/09/18 11:32:02;;;;;;;0.87;0.70;;;15.00;70.10;;;;;;4936913;29;20557;-72
2022/09/18 11:34:32;;;;;;;0.70;0.60;;;15.00;71.40;;;;;;4937224;29;20437;-72
2022/09/18 11:37:02;;;;;;;1.40;0.70;;;15.30;71.00;;;;;;4938029;29;20539;-72
2022/09/18 11:39:34;;;;;;;0.60;0.50;;;15.50;70.80;;;;;;4937071;29;20538;-73
2022/09/18 11:42:01;;;;;;;1.33;0.80;;;15.80;69.60;;;;;;4937536;29;20567;-72
2022/09/18 11:44:31;;;;;;;0.70;0.60;;;15.90;69.60;;;;;;4937173;29;20511;-72
2022/09/18 11:47:19;;;;;;;0.60;0.60;;;16.00;68.30;;;;;;4937605;29;20454;-72
2022/09/18 11:49:52;;;;;;;0.70;0.70;;;16.20;68.10;;;;;;4936492;29;20483;-73
2022/09/18 11:52:24;;;;;;;0.70;0.60;;;16.50;67.50;;;;;;4936654;29;20484;-73
2022/09/18 11:54:55;;;;;;;0.80;0.70;;;16.70;66.30;;;;;;4936787;29;20444;-72
2022/09/18 11:57:26;;;;;;;0.70;0.60;;;16.90;65.10;;;;;;4936395;29;20817;-73
2022/09/18 11:59:58;;;;;;;0.67;0.60;;;16.90;68.10;;;;;;4936985;29;20440;-72
2022/09/18 12:02:32;;;;;;;0.70;0.63;;;16.80;63.60;;;;;;4936265;29;20487;-72
2022/09/18 12:05:09;;;;;;;0.70;0.60;;;16.40;62.30;;;;;;4937366;29;20443;-72
2022/09/18 12:07:41;;;;;;;0.87;0.80;;;16.10;61.10;;;;;;4939423;29;20947;-72
2022/09/18 12:10:16;;;;;;;0.70;0.60;;;15.90;62.30;;;;;;4940582;29;20475;-72
2022/09/18 12:12:48;;;;;;;0.67;0.60;;;15.80;65.60;;;;;;4940422;29;20489;-72
2022/09/18 12:15:19;;;;;;;0.70;0.60;;;15.60;63.80;;;;;;4940196;29;20495;-72
2022/09/18 12:17:52;;;;;;;0.60;0.60;;;15.60;66.40;;;;;;4940562;29;20835;-72
2022/09/18 12:20:24;;;;;;;0.70;0.70;;;15.80;65.90;;;;;;4940746;29;20436;-72
2022/09/18 12:22:54;;;;;;;0.70;0.60;;;15.70;67.80;;;;;;4940646;29;20433;-71
2022/09/18 12:25:29;;;;;;;0.60;0.50;;;15.90;67.40;;;;;;4941376;29;20440;-74
2022/09/18 12:28:03;;;;;;;0.70;0.60;;;16.10;66.90;;;;;;4940530;29;20435;-73
2022/09/18 12:30:42;;;;;;;0.80;0.60;;;16.20;65.20;;;;;;4940505;29;20475;-73
2022/09/18 12:33:25;;;;;;;0.70;0.60;;;16.60;65.90;;;;;;4940628;29;20443;-73
2022/09/18 12:36:04;;;;;;;0.70;0.60;;;17.00;63.10;;;;;;4940224;29;20444;-73
2022/09/18 12:38:41;;;;;;;0.70;0.60;;;17.30;59.60;;;;;;4940720;29;20444;-73
2022/09/18 12:41:19;;;;;;;0.93;0.60;;;17.40;60.30;;;;;;4939127;29;20470;-74
2022/09/18 12:44:16;;;;;;;0.70;0.60;;;17.40;59.20;;;;;;4939012;29;20927;-72
2022/09/18 12:46:56;;;;;;;0.80;0.70;;;17.20;59.20;;;;;;4939009;29;20436;-73
2022/09/18 12:49:50;;;;;;;0.67;0.60;;;17.40;58.90;;;;;;4938829;29;21062;-73
2022/09/18 12:52:27;;;;;;;0.60;0.50;;;17.50;58.90;;;;;;4938844;29;20475;-72
2022/09/18 12:55:21;;;;;;;0.70;0.60;;;17.70;58.90;;;;;;4939300;29;20443;-73
2022/09/18 12:58:00;;;;;;;0.70;0.60;;;18.20;59.10;;;;;;4939219;29;20444;-73
2022/09/18 13:00:28;;;;;;;0.70;0.63;;;18.30;57.40;;;;;;4939222;29;20432;-71
2022/09/18 13:02:59;;;;;;;0.70;0.50;;;18.20;55.80;;;;;;4938990;29;20467;-73
2022/09/18 13:05:31;;;;;;;0.70;0.60;;;18.20;54.90;;;;;;4939077;29;20483;-73
2022/09/18 13:08:07;;;;;;;0.70;0.60;;;18.00;56.50;;;;;;4939000;29;20440;-72
2022/09/18 13:10:38;;;;;;;0.70;0.60;;;17.50;55.90;;;;;;4938847;29;20472;-71
2022/09/18 13:13:09;;;;;;;0.60;0.60;;;17.30;56.70;;;;;;4938924;29;20437;-72
2022/09/18 13:15:41;;;;;;;0.70;0.60;;;17.30;57.40;;;;;;4938856;29;20432;-72
2022/09/18 13:18:19;;;;;;;0.70;0.53;;;17.20;55.70;;;;;;4937950;29;20976;-72
2022/09/18 13:20:46;;;;;;;0.70;0.60;;;17.30;56.70;;;;;;4938724;29;20531;-71
2022/09/18 13:23:19;;;;;;;0.80;0.60;;;17.10;57.50;;;;;;4938678;29;20563;-72
2022/09/18 13:25:49;;;;;;;0.70;0.60;;;17.00;58.50;;;;;;4938326;29;20812;-72
2022/09/18 13:28:20;;;;;;;0.60;0.50;;;16.80;58.20;;;;;;4938881;29;20440;-72
2022/09/18 13:30:50;;;;;;;0.60;0.50;;;16.80;59.60;;;;;;4938385;29;20495;-71
2022/09/18 13:33:25;;;;;;;0.60;0.60;;;16.90;58.70;;;;;;4938486;29;20452;-72
2022/09/18 13:35:55;;;;;;;0.60;0.60;;;16.90;59.30;;;;;;4938616;29;20488;-72
2022/09/18 13:38:26;;;;;;;0.80;0.50;;;16.90;58.00;;;;;;4938517;29;20799;-72
2022/09/18 13:40:59;;;;;;;0.63;0.57;;;17.00;57.50;;;;;;4938335;29;20471;-72
2022/09/18 13:43:45;;;;;;;0.80;0.60;;;16.80;58.00;;;;;;4938334;29;20499;-73
2022/09/18 13:46:38;;;;;;;0.70;0.60;;;17.00;57.50;;;;;;4938102;29;20467;-73
2022/09/18 13:49:18;;;;;;;0.70;0.60;;;16.90;57.90;;;;;;4938169;29;20447;-73
2022/09/18 13:51:45;;;;;;;0.93;0.67;;;16.90;58.10;;;;;;4937877;29;20980;-72
2022/09/18 13:54:23;;;;;;;0.70;0.70;;;16.80;58.30;;;;;;4938177;29;20451;-73
2022/09/18 13:57:18;;;;;;;0.70;0.60;;;16.50;58.00;;;;;;4938110;29;20491;-73
2022/09/18 13:59:51;;;;;;;0.70;0.60;;;16.20;57.70;;;;;;4937737;29;20936;-72
2022/09/18 14:02:39;;;;;;;0.60;0.60;;;16.00;58.90;;;;;;4937658;29;20567;-73
2022/09/18 14:05:29;;;;;;;0.70;0.60;;;15.80;58.70;;;;;;4933289;29;20470;-73
2022/09/18 14:08:03;;;;;;;0.70;0.60;;;15.50;60.10;;;;;;4937828;29;20866;-72
2022/09/18 14:11:00;;;;;;;0.60;0.50;;;15.30;60.60;;;;;;4937531;29;20478;-72
2022/09/18 14:13:55;;;;;;;1.20;0.60;;;15.40;60.30;;;;;;4937745;29;20527;-73
2022/09/18 14:16:31;;;;;;;1.53;1.43;;;15.30;61.10;;;;;;4903900;29;20874;-73
2022/09/18 14:19:05;;;;;;;0.60;0.50;;;15.40;61.50;;;;;;4937485;29;20448;-73
2022/09/18 14:21:38;;;;;;;1.57;0.90;;;15.70;60.40;;;;;;4937404;29;20527;-72
2022/09/18 14:24:36;;;;;;;0.70;0.60;;;16.20;59.60;;;;;;4937443;29;20829;-72
2022/09/18 14:27:30;;;;;;;0.80;0.60;;;16.10;59.20;;;;;;4937418;29;20912;-73
2022/09/18 14:30:00;;;;;;;0.70;0.60;;;16.30;59.50;;;;;;4936672;29;20464;-73
2022/09/18 14:32:27;;;;;;;0.70;0.60;;;16.20;59.00;;;;;;4937271;29;20533;-73
2022/09/18 14:35:22;;;;;;;0.70;0.60;;;16.20;59.90;;;;;;4937489;29;20447;-73
2022/09/18 14:37:48;;;;;;;0.60;0.50;;;16.20;60.30;;;;;;4937244;29;20456;-72
2022/09/18 14:40:19;;;;;;;0.60;0.60;;;16.00;59.50;;;;;;4937231;29;20444;-73
2022/09/18 14:42:48;;;;;;;0.90;0.60;;;15.90;60.50;;;;;;4937156;29;20618;-73
2022/09/18 14:45:26;;;;;;;0.60;0.57;;;15.80;61.20;;;;;;4937276;29;20460;-73
2022/09/18 14:47:53;;;;;;;0.70;0.50;;;15.70;61.40;;;;;;4937361;29;20432;-73
2022/09/18 14:50:26;;;;;;;0.80;0.63;;;15.60;61.90;;;;;;4937114;29;20487;-73
2022/09/18 14:52:53;;;;;;;0.70;0.70;;;15.50;61.60;;;;;;4937250;29;20450;-73
2022/09/18 14:55:22;;;;;;;0.67;0.50;;;15.40;62.60;;;;;;4936645;29;20795;-73
2022/09/18 14:57:54;;;;;;;0.60;0.50;;;15.40;62.70;;;;;;4936905;29;20455;-73
2022/09/18 15:00:24;;;;;;;0.60;0.60;;;15.70;62.80;;;;;;4937089;29;20500;-73
2022/09/18 15:02:53;;;;;;;0.60;0.50;;;15.90;61.10;;;;;;4936736;29;20468;-73
2022/09/18 15:05:21;;;;;;;0.60;0.60;;;15.60;62.30;;;;;;4936921;29;20503;-73
2022/09/18 15:07:49;;;;;;;0.70;0.60;;;15.50;62.50;;;;;;4936723;29;20541;-73
2022/09/18 15:10:17;;;;;;;0.60;0.60;;;15.50;62.60;;;;;;4936757;29;20488;-73
2022/09/18 15:12:44;;;;;;;0.70;0.70;;;15.50;62.80;;;;;;4936634;29;20999;-72
2022/09/18 15:15:27;;;;;;;0.60;0.50;;;15.60;63.40;;;;;;4938153;29;20464;-73
2022/09/18 15:17:55;;;;;;;0.80;0.60;;;15.50;63.20;;;;;;4936622;29;20495;-73
2022/09/18 15:20:23;;;;;;;0.60;0.50;;;15.40;63.50;;;;;;4936607;29;20491;-73
2022/09/18 15:22:52;;;;;;;0.60;0.50;;;15.30;63.30;;;;;;4936259;29;21002;-74
2022/09/18 15:25:21;;;;;;;0.60;0.50;;;15.40;63.90;;;;;;4936523;29;20463;-73
2022/09/18 15:27:49;;;;;;;0.67;0.57;;;15.30;62.90;;;;;;4936771;29;20460;-73
2022/09/18 15:30:18;;;;;;;0.70;0.60;;;15.30;62.80;;;;;;4936413;29;20493;-73
2022/09/18 15:32:50;;;;;;;0.93;0.83;;;15.30;62.80;;;;;;4936336;29;20476;-73
2022/09/18 15:35:20;;;;;;;0.70;0.60;;;15.20;63.30;;;;;;4937304;29;20756;-73
2022/09/18 15:37:51;;;;;;;1.10;0.60;;;15.10;62.90;;;;;;4936294;29;20507;-72
2022/09/18 15:40:19;;;;;;;0.70;0.60;;;15.20;63.20;;;;;;4936423;29;20797;-73
2022/09/18 15:42:56;;;;;;;0.70;0.60;;;15.10;63.30;;;;;;4935928;29;20475;-73
2022/09/18 15:45:24;;;;;;;0.70;0.67;;;14.90;63.60;;;;;;4936472;29;20463;-72
2022/09/18 15:47:53;;;;;;;0.70;0.60;;;14.90;64.20;;;;;;4936288;29;20451;-73
2022/09/18 15:50:33;;;;;;;0.70;0.60;;;14.90;64.20;;;;;;4936268;29;20491;-73
2022/09/18 15:53:04;;;;;;;0.70;0.60;;;14.70;64.00;;;;;;4936287;29;20439;-73
2022/09/18 15:55:33;;;;;;;0.63;0.60;;;14.50;64.80;;;;;;4936254;29;20452;-72
2022/09/18 15:58:03;;;;;;;0.70;0.63;;;14.50;65.50;;;;;;4936126;29;20448;-73
2022/09/18 16:00:32;;;;;;;0.80;0.70;;;14.50;65.20;;;;;;4936058;29;20448;-72
2022/09/18 16:03:03;;;;;;;0.70;0.60;;;14.60;65.20;;;;;;4935971;29;20558;-73
2022/09/18 16:05:33;;;;;;;0.70;0.60;;;14.70;64.60;;;;;;4936178;29;20436;-73
2022/09/18 16:08:01;;;;;;;0.77;0.70;;;14.70;64.90;;;;;;4936101;29;20452;-72